createdAt,value
2023-01-11T00:02:14.440Z,93.47
2023-01-11T00:04:41.536Z,91.28
2023-01-11T00:07:08.193Z,91.93
2023-01-11T00:09:34.803Z,94.97
2023-01-11T00:12:01.431Z,100.22
2023-01-11T00:14:28.112Z,95.20
2023-01-11T00:16:54.714Z,93.50
2023-01-11T00:19:21.350Z,92.95
2023-01-11T00:21:49.559Z,93.93
2023-01-11T00:24:16.242Z,92.55
2023-01-11T00:26:42.843Z,95.13
2023-01-11T00:29:09.495Z,99.00
2023-01-11T00:31:36.159Z,95.75
2023-01-11T00:34:02.883Z,97.93
2023-01-11T00:36:29.534Z,97.95
2023-01-11T00:38:56.416Z,96.80
2023-01-11T00:41:43.133Z,96.22
2023-01-11T00:44:29.439Z,97.43
2023-01-11T00:47:15.481Z,92.78
2023-01-11T00:49:42.845Z,98.85
2023-01-11T00:52:10.112Z,95.95
2023-01-11T00:54:41.661Z,93.32
2023-01-11T00:57:08.985Z,94.43
2023-01-11T00:59:36.839Z,94.72
2023-01-11T01:02:04.104Z,94.88
2023-01-11T01:04:30.910Z,99.50
2023-01-11T01:06:57.610Z,94.43
2023-01-11T01:09:24.432Z,92.93
2023-01-11T01:11:51.108Z,93.03
2023-01-11T01:14:28.417Z,91.97
2023-01-11T01:16:59.671Z,92.45
2023-01-11T01:19:29.623Z,94.85
2023-01-11T01:21:57.797Z,92.38
2023-01-11T01:24:25.680Z,97.45
2023-01-11T01:26:52.384Z,96.57
2023-01-11T01:29:19.186Z,91.40
2023-01-11T01:31:45.883Z,94.22
2023-01-11T01:34:12.647Z,94.78
2023-01-11T01:36:39.926Z,94.22
2023-01-11T01:39:07.882Z,96.80
2023-01-11T01:41:35.684Z,92.38
2023-01-11T01:44:05.247Z,95.40
2023-01-11T01:46:33.711Z,97.93
2023-01-11T01:49:11.419Z,94.72
2023-01-11T01:51:56.519Z,92.40
2023-01-11T01:54:27.594Z,93.50
2023-01-11T01:56:58.432Z,96.57
2023-01-11T01:59:27.855Z,101.03
2023-01-11T02:01:55.674Z,91.35
2023-01-11T02:04:26.702Z,91.35
2023-01-11T02:06:59.754Z,94.97
2023-01-11T02:09:38.797Z,95.55
2023-01-11T02:12:07.507Z,92.68
2023-01-11T02:14:36.911Z,94.43
2023-01-11T02:17:03.859Z,94.47
2023-01-11T02:19:50.702Z,96.05
2023-01-11T02:23:03.699Z,92.95
2023-01-11T02:26:07.965Z,91.13
2023-01-11T02:28:56.245Z,94.45
2023-01-11T02:31:34.938Z,98.07
2023-01-11T02:34:19.386Z,99.15
2023-01-11T02:37:12.683Z,92.43
2023-01-11T02:39:54.766Z,96.07
2023-01-11T02:42:53.164Z,93.88
2023-01-11T02:45:39.410Z,94.72
2023-01-11T02:48:32.511Z,92.43
2023-01-11T02:51:05.307Z,93.10
2023-01-11T02:53:55.424Z,91.68
2023-01-11T02:56:27.816Z,93.30
2023-01-11T02:58:57.788Z,97.07
2023-01-11T03:01:25.648Z,91.50
2023-01-11T03:03:53.430Z,92.80
2023-01-11T03:06:27.433Z,95.13
2023-01-11T03:09:23.284Z,94.18
2023-01-11T03:12:27.400Z,92.78
2023-01-11T03:15:16.073Z,96.03
2023-01-11T03:18:38.132Z,93.88
2023-01-11T03:21:34.920Z,92.47
2023-01-11T03:24:20.463Z,96.32
2023-01-11T03:27:04.960Z,93.47
2023-01-11T03:29:48.892Z,91.15
2023-01-11T03:32:44.404Z,105.28
2023-01-11T03:35:29.178Z,92.28
2023-01-11T03:38:01.257Z,90.30
2023-01-11T03:40:34.656Z,95.40
2023-01-11T03:43:13.291Z,94.28
2023-01-11T03:45:53.945Z,96.68
2023-01-11T03:48:35.127Z,91.10
2023-01-11T03:51:05.450Z,93.38
2023-01-11T03:53:36.693Z,91.63
2023-01-11T03:56:07.123Z,94.72
2023-01-11T03:58:33.830Z,92.30
2023-01-11T04:01:01.489Z,94.40
2023-01-11T04:03:28.581Z,91.93
2023-01-11T04:05:59.692Z,93.68
2023-01-11T04:08:26.397Z,91.68
2023-01-11T04:10:53.014Z,91.97
2023-01-11T04:13:19.665Z,93.45
2023-01-11T04:15:46.288Z,92.30
2023-01-11T04:18:12.902Z,94.45
2023-01-11T04:20:40.554Z,91.13
2023-01-11T04:23:09.574Z,91.60
2023-01-11T04:25:36.243Z,92.65
2023-01-11T04:28:03.010Z,93.65
2023-01-11T04:30:29.770Z,90.95
2023-01-11T04:32:59.130Z,94.45
2023-01-11T04:35:26.312Z,91.65
2023-01-11T04:37:57.083Z,93.50
2023-01-11T04:40:25.109Z,93.50
2023-01-11T04:42:52.008Z,90.90
2023-01-11T04:45:18.641Z,91.00
2023-01-11T04:47:45.268Z,91.00
2023-01-11T04:50:12.030Z,96.20
2023-01-11T04:52:40.570Z,91.90
2023-01-11T04:55:07.803Z,91.47
2023-01-11T04:57:34.428Z,94.47
2023-01-11T05:00:01.073Z,91.07
2023-01-11T05:02:27.731Z,92.85
2023-01-11T05:04:54.344Z,91.45
2023-01-11T05:07:20.988Z,93.18
2023-01-11T05:09:47.584Z,92.93
2023-01-11T05:12:14.208Z,92.97
2023-01-11T05:14:40.888Z,92.43
2023-01-11T05:17:07.542Z,93.57
2023-01-11T05:19:34.173Z,91.85
2023-01-11T05:22:00.871Z,95.60
2023-01-11T05:24:27.463Z,94.18
2023-01-11T05:26:54.156Z,95.47
2023-01-11T05:29:21.767Z,94.70
2023-01-11T05:31:48.936Z,92.65
2023-01-11T05:34:16.943Z,96.95
2023-01-11T05:36:44.246Z,94.82
2023-01-11T05:39:12.630Z,94.60
2023-01-11T05:41:39.659Z,91.57
2023-01-11T05:44:29.294Z,93.38
2023-01-11T05:46:55.967Z,92.93
2023-01-11T05:49:22.603Z,93.82
2023-01-11T05:51:49.293Z,90.70
2023-01-11T05:54:16.128Z,92.70
2023-01-11T05:56:43.548Z,93.10
2023-01-11T05:59:10.476Z,92.05
2023-01-11T06:01:37.557Z,95.45
2023-01-11T06:04:04.486Z,94.10
2023-01-11T06:06:32.244Z,92.20
2023-01-11T06:08:58.901Z,92.45
2023-01-11T06:11:25.537Z,91.00
2023-01-11T06:13:52.266Z,90.93
2023-01-11T06:16:20.945Z,92.57
2023-01-11T06:18:50.440Z,92.22
2023-01-11T06:21:18.527Z,91.57
2023-01-11T06:23:48.057Z,97.40
2023-01-11T06:26:16.915Z,94.75
2023-01-11T06:28:43.995Z,92.78
2023-01-11T06:31:10.997Z,92.00
2023-01-11T06:33:37.802Z,91.10
2023-01-11T06:36:10.121Z,96.75
2023-01-11T06:38:37.844Z,91.82
2023-01-11T06:41:08.228Z,91.72
2023-01-11T06:43:36.207Z,91.82
2023-01-11T06:46:02.976Z,90.72
2023-01-11T06:48:29.695Z,90.97
2023-01-11T06:50:58.171Z,91.63
2023-01-11T06:53:28.426Z,90.05
2023-01-11T06:55:57.561Z,90.45
2023-01-11T06:58:25.431Z,90.65
2023-01-11T07:00:53.286Z,90.30
2023-01-11T07:03:24.371Z,93.63
2023-01-11T07:05:52.393Z,92.65
2023-01-11T07:08:19.575Z,90.43
2023-01-11T07:10:46.539Z,93.28
2023-01-11T07:13:16.138Z,90.50
2023-01-11T07:15:48.423Z,90.55
2023-01-11T07:18:15.181Z,92.15
2023-01-11T07:20:41.836Z,93.18
2023-01-11T07:23:09.583Z,90.00
2023-01-11T07:25:36.625Z,90.90
2023-01-11T07:28:08.379Z,92.00
2023-01-11T07:30:55.464Z,91.32
2023-01-11T07:33:22.626Z,91.40
2023-01-11T07:35:49.653Z,91.43
2023-01-11T07:38:16.547Z,91.93
2023-01-11T07:40:43.242Z,93.65
2023-01-11T07:43:14.413Z,93.05
2023-01-11T07:45:47.938Z,95.15
2023-01-11T07:48:20.576Z,91.72
2023-01-11T07:50:47.803Z,92.13
2023-01-11T07:53:14.508Z,91.43
2023-01-11T07:55:41.822Z,90.28
2023-01-11T07:58:13.301Z,92.57
2023-01-11T08:00:43.175Z,90.93
2023-01-11T08:03:10.184Z,90.85
2023-01-11T08:05:37.416Z,92.68
2023-01-11T08:08:05.066Z,90.22
2023-01-11T08:10:31.845Z,90.80
2023-01-11T08:13:17.398Z,91.22
2023-01-11T08:15:44.194Z,91.00
2023-01-11T08:18:12.087Z,91.20
2023-01-11T08:20:39.586Z,90.10
2023-01-11T08:23:08.199Z,90.88
2023-01-11T08:25:35.571Z,91.60
2023-01-11T08:28:04.423Z,90.45
2023-01-11T08:30:32.100Z,90.28
2023-01-11T08:33:01.079Z,90.22
2023-01-11T08:35:27.861Z,90.40
2023-01-11T08:37:54.551Z,89.97
2023-01-11T08:40:23.917Z,91.75
2023-01-11T08:42:57.501Z,92.25
2023-01-11T08:45:24.882Z,89.72
2023-01-11T08:47:52.086Z,90.85
2023-01-11T08:50:19.408Z,90.93
2023-01-11T08:52:47.116Z,91.45
2023-01-11T08:55:13.860Z,90.28
2023-01-11T08:57:40.510Z,91.65
2023-01-11T09:00:08.628Z,90.63
2023-01-11T09:02:35.296Z,91.28
2023-01-11T09:05:02.121Z,89.78
2023-01-11T09:07:28.916Z,90.95
2023-01-11T09:09:55.579Z,90.68
2023-01-11T09:12:22.205Z,91.78
2023-01-11T09:14:48.853Z,93.95
2023-01-11T09:17:15.472Z,90.75
2023-01-11T09:19:42.096Z,89.72
2023-01-11T09:22:08.800Z,89.93
2023-01-11T09:24:35.424Z,89.88
2023-01-11T09:27:02.201Z,92.20
2023-01-11T09:29:29.297Z,92.03
2023-01-11T09:31:55.984Z,90.28
2023-01-11T09:34:23.202Z,91.07
2023-01-11T09:36:50.543Z,94.97
2023-01-11T09:39:20.369Z,90.93
2023-01-11T09:42:06.003Z,90.57
2023-01-11T09:44:35.858Z,89.85
2023-01-11T09:47:40.757Z,92.28
2023-01-11T09:50:24.990Z,90.85
2023-01-11T09:53:08.874Z,94.50
2023-01-11T09:55:42.744Z,91.78
2023-01-11T09:59:03.567Z,90.80
2023-01-11T10:01:50.793Z,89.70
2023-01-11T10:04:37.318Z,91.55
2023-01-11T10:07:34.573Z,89.50
2023-01-11T10:18:26.399Z,89.30
2023-01-11T10:19:40.564Z,91.10
2023-01-11T10:22:20.101Z,89.60
2023-01-11T10:25:01.780Z,89.82
2023-01-11T10:27:40.397Z,91.43
2023-01-11T10:30:42.085Z,90.22
2023-01-11T10:33:45.471Z,89.43
2023-01-11T10:36:53.491Z,89.72
2023-01-11T10:39:55.600Z,90.03
2023-01-11T10:42:25.317Z,94.32
2023-01-11T10:45:12.972Z,91.60
2023-01-11T10:47:53.909Z,89.60
2023-01-11T10:50:36.194Z,89.97
2023-01-11T10:53:29.172Z,92.03
2023-01-11T10:56:10.989Z,90.22
2023-01-11T10:59:08.717Z,90.65
2023-01-11T11:02:12.203Z,89.45
2023-01-11T11:04:51.873Z,90.35
2023-01-11T11:07:41.991Z,88.82
2023-01-11T11:10:21.610Z,89.22
2023-01-11T11:13:19.020Z,89.15
2023-01-11T11:16:26.048Z,89.68
2023-01-11T11:18:58.439Z,95.30
2023-01-11T11:21:37.216Z,88.63
2023-01-11T11:24:17.400Z,88.38
2023-01-11T11:26:49.564Z,88.18
2023-01-11T11:29:30.499Z,91.07
2023-01-11T11:32:00.125Z,90.90
2023-01-11T11:34:28.016Z,88.43
2023-01-11T11:36:57.946Z,88.47
2023-01-11T11:39:30.695Z,89.38
2023-01-11T11:42:15.605Z,90.47
2023-01-11T11:44:42.302Z,89.45
2023-01-11T11:47:16.738Z,88.72
2023-01-11T11:49:43.816Z,88.90
2023-01-11T11:52:16.510Z,89.70
2023-01-11T11:54:51.550Z,89.55
2023-01-11T11:57:23.574Z,88.85
2023-01-11T12:00:05.990Z,88.57
2023-01-11T12:02:36.133Z,88.97
2023-01-11T12:05:09.576Z,89.15
2023-01-11T12:07:53.865Z,88.97
2023-01-11T12:10:24.320Z,89.90
2023-01-11T12:13:00.174Z,89.72
2023-01-11T12:15:30.915Z,88.70
2023-01-11T12:18:21.813Z,88.22
2023-01-11T12:20:49.436Z,88.93
2023-01-11T12:23:19.163Z,88.93
2023-01-11T12:26:13.361Z,88.32
2023-01-11T12:28:58.812Z,88.85
2023-01-11T12:31:56.545Z,89.50
2023-01-11T12:35:11.579Z,89.03
2023-01-11T12:37:44.004Z,88.82
2023-01-11T12:40:18.819Z,90.00
2023-01-11T12:43:23.340Z,89.45
2023-01-11T12:46:02.127Z,90.15
2023-01-11T12:48:57.339Z,88.72
2023-01-11T12:51:35.972Z,88.85
2023-01-11T12:54:27.401Z,89.05
2023-01-11T12:57:16.156Z,88.63
2023-01-11T13:00:06.002Z,89.25
2023-01-11T13:02:51.357Z,88.88
2023-01-11T13:05:23.538Z,90.82
2023-01-11T13:08:27.292Z,88.97
2023-01-11T13:11:37.685Z,88.63
2023-01-11T13:14:41.891Z,92.88
2023-01-11T13:17:39.861Z,94.80
2023-01-11T13:20:25.867Z,92.88
2023-01-11T13:22:57.956Z,89.25
2023-01-11T13:25:29.591Z,89.47
2023-01-11T13:27:59.075Z,89.60
2023-01-11T13:30:26.846Z,88.85
2023-01-11T13:33:03.035Z,90.05
2023-01-11T13:35:40.927Z,88.47
2023-01-11T13:38:34.777Z,88.72
2023-01-11T13:41:40.694Z,91.55
2023-01-11T13:44:19.349Z,89.53
2023-01-11T13:46:57.593Z,90.32
2023-01-11T13:49:50.510Z,88.82
2023-01-11T13:52:22.413Z,90.93
2023-01-11T13:55:14.419Z,94.57
2023-01-11T13:58:02.700Z,91.63
2023-01-11T14:00:44.055Z,93.72
2023-01-11T14:03:33.717Z,93.32
2023-01-11T14:06:18.039Z,93.05
2023-01-11T14:08:53.251Z,91.25
2023-01-11T14:11:33.826Z,93.50
2023-01-11T14:14:18.071Z,90.28
2023-01-11T14:16:59.201Z,92.97
2023-01-11T14:19:42.185Z,95.07
2023-01-11T14:22:44.155Z,97.95
2023-01-11T14:25:37.296Z,101.70
2023-01-11T14:28:16.430Z,93.15
2023-01-11T14:31:11.726Z,98.22
2023-01-11T14:33:49.974Z,94.78
2023-01-11T14:36:19.660Z,96.10
2023-01-11T14:39:00.394Z,94.65
2023-01-11T14:41:48.734Z,94.95
2023-01-11T14:44:36.374Z,92.85
2023-01-11T14:47:23.824Z,97.32
2023-01-11T14:50:31.996Z,102.70
2023-01-11T14:53:00.501Z,98.75
2023-01-11T14:55:35.738Z,92.88
2023-01-11T14:58:15.299Z,96.80
2023-01-11T15:00:41.919Z,97.13
2023-01-11T15:03:08.688Z,95.53
2023-01-11T15:05:46.546Z,94.75
2023-01-11T15:08:13.116Z,94.55
2023-01-11T15:10:47.387Z,94.05
2023-01-11T15:13:22.307Z,95.95
2023-01-11T15:16:08.065Z,98.60
2023-01-11T15:18:45.803Z,104.65
2023-01-11T15:21:23.033Z,98.65
2023-01-11T15:23:54.392Z,97.75
2023-01-11T15:26:23.350Z,103.05
2023-01-11T15:29:02.741Z,96.13
2023-01-11T15:31:38.917Z,95.15
2023-01-11T15:34:21.630Z,95.90
2023-01-11T15:37:00.542Z,101.47
2023-01-11T15:39:56.679Z,92.80
2023-01-11T15:42:48.864Z,100.22
2023-01-11T15:45:27.579Z,97.45
2023-01-11T15:48:26.430Z,94.82
2023-01-11T15:51:03.636Z,95.13
2023-01-11T15:54:04.563Z,103.07
2023-01-11T15:56:48.696Z,98.18
2023-01-11T15:59:46.075Z,100.65
2023-01-11T16:02:18.264Z,94.50
2023-01-11T16:04:53.257Z,92.47
2023-01-11T16:07:43.429Z,97.60
2023-01-11T16:10:40.813Z,94.50
2023-01-11T16:13:46.107Z,94.00
2023-01-11T16:16:20.871Z,96.97
2023-01-11T16:18:53.098Z,94.18
2023-01-11T16:21:38.142Z,91.35
2023-01-11T16:24:13.797Z,93.60
2023-01-11T16:26:41.348Z,99.13
2023-01-11T16:29:17.323Z,96.30
2023-01-11T16:32:06.850Z,97.85
2023-01-11T16:34:42.395Z,93.72
2023-01-11T16:37:36.762Z,93.65
2023-01-11T16:40:24.289Z,94.63
2023-01-11T16:43:07.289Z,100.28
2023-01-11T16:45:45.393Z,93.78
2023-01-11T16:48:20.840Z,99.38
2023-01-11T16:51:10.012Z,94.72
2023-01-11T16:53:42.291Z,95.32
2023-01-11T16:56:23.593Z,98.43
2023-01-11T16:59:07.540Z,96.93
2023-01-11T17:02:00.651Z,97.68
2023-01-11T17:04:30.191Z,98.43
2023-01-11T17:07:11.046Z,102.78
2023-01-11T17:09:37.725Z,94.80
2023-01-11T17:12:06.148Z,95.30
2023-01-11T17:15:06.475Z,93.05
2023-01-11T17:17:37.652Z,100.68
2023-01-11T17:20:13.420Z,101.57
2023-01-11T17:22:40.068Z,101.32
2023-01-11T17:25:15.296Z,96.30
2023-01-11T17:27:50.048Z,100.53
2023-01-11T17:30:24.802Z,97.80
2023-01-11T17:32:53.694Z,97.18
2023-01-11T17:35:23.492Z,100.55
2023-01-11T17:37:56.346Z,100.95
2023-01-11T17:40:38.320Z,92.38
2023-01-11T17:43:45.426Z,92.78
2023-01-11T17:46:26.664Z,94.60
2023-01-11T17:48:58.401Z,93.05
2023-01-11T17:51:31.383Z,98.25
2023-01-11T17:53:58.247Z,98.72
2023-01-11T17:56:37.950Z,96.38
2023-01-11T17:59:24.268Z,94.35
2023-01-11T18:02:12.556Z,116.63
2023-01-11T18:04:39.600Z,96.30
2023-01-11T18:07:18.357Z,101.47
2023-01-11T18:09:49.932Z,104.05
2023-01-11T18:12:22.908Z,92.85
2023-01-11T18:15:00.776Z,96.53
2023-01-11T18:17:35.573Z,101.97
2023-01-11T18:20:24.069Z,102.47
2023-01-11T18:22:53.732Z,98.40
2023-01-11T18:25:24.268Z,94.55
2023-01-11T18:27:51.183Z,93.38
2023-01-11T18:30:32.555Z,103.80
2023-01-11T18:33:04.250Z,95.90
2023-01-11T18:35:31.070Z,100.13
2023-01-11T18:37:57.671Z,96.30
2023-01-11T18:40:24.386Z,92.13
2023-01-11T18:42:52.814Z,98.90
2023-01-11T18:45:20.257Z,98.82
2023-01-11T18:47:46.945Z,94.30
2023-01-11T18:50:14.309Z,97.35
2023-01-11T18:52:41.030Z,99.40
2023-01-11T18:55:11.404Z,97.53
2023-01-11T18:57:38.059Z,94.55
2023-01-11T19:00:05.208Z,101.28
2023-01-11T19:02:43.176Z,100.13
2023-01-11T19:05:16.575Z,99.70
2023-01-11T19:07:43.894Z,102.80
2023-01-11T19:10:22.485Z,107.28
2023-01-11T19:12:49.431Z,100.85
2023-01-11T19:15:16.847Z,94.28
2023-01-11T19:17:43.562Z,102.55
2023-01-11T19:20:11.111Z,99.07
2023-01-11T19:22:38.053Z,103.65
2023-01-11T19:25:05.447Z,102.38
2023-01-11T19:27:32.308Z,101.22
2023-01-11T19:29:59.136Z,96.90
2023-01-11T19:32:25.842Z,101.32
2023-01-11T19:34:57.825Z,102.03
2023-01-11T19:37:26.257Z,101.18
2023-01-11T19:39:53.296Z,98.93
2023-01-11T19:42:20.967Z,102.53
2023-01-11T19:44:47.780Z,103.28
2023-01-11T19:47:15.606Z,101.15
2023-01-11T19:49:43.327Z,95.20
2023-01-11T19:52:14.678Z,103.80
2023-01-11T19:54:42.590Z,94.47
2023-01-11T19:57:11.183Z,99.93
2023-01-11T19:59:37.859Z,99.30
2023-01-11T20:02:05.332Z,96.10
2023-01-11T20:04:32.475Z,98.35
2023-01-11T20:06:59.454Z,97.22
2023-01-11T20:09:26.218Z,100.10
2023-01-11T20:11:53.295Z,97.38
2023-01-11T20:14:20.369Z,98.45
2023-01-11T20:16:47.086Z,99.40
2023-01-11T20:19:13.745Z,102.55
2023-01-11T20:21:40.503Z,100.25
2023-01-11T20:24:07.561Z,96.72
2023-01-11T20:26:34.392Z,97.15
2023-01-11T20:29:01.969Z,99.03
2023-01-11T20:31:31.637Z,100.07
2023-01-11T20:33:59.839Z,97.20
2023-01-11T20:36:27.143Z,98.82
2023-01-11T20:38:55.163Z,94.20
2023-01-11T20:41:44.048Z,97.75
2023-01-11T20:44:11.299Z,99.97
2023-01-11T20:46:38.248Z,100.03
2023-01-11T20:49:06.277Z,96.03
2023-01-11T20:51:33.439Z,100.30
2023-01-11T20:54:00.432Z,98.72
2023-01-11T20:56:27.374Z,96.15
2023-01-11T20:58:54.127Z,103.03
2023-01-11T21:01:26.862Z,95.82
2023-01-11T21:03:54.404Z,93.15
2023-01-11T21:06:21.055Z,98.70
2023-01-11T21:08:47.790Z,100.13
2023-01-11T21:11:16.037Z,96.35
2023-01-11T21:13:42.707Z,100.72
2023-01-11T21:16:12.587Z,96.20
2023-01-11T21:18:43.345Z,95.82
2023-01-11T21:21:17.914Z,100.28
2023-01-11T21:23:45.566Z,95.47
2023-01-11T21:26:17.417Z,102.57
2023-01-11T21:28:44.922Z,97.80
2023-01-11T21:31:12.760Z,94.47
2023-01-11T21:33:39.697Z,109.97
2023-01-11T21:36:10.368Z,92.78
2023-01-11T21:38:37.156Z,95.35
2023-01-11T21:41:46.846Z,100.53
2023-01-11T21:44:14.698Z,94.68
2023-01-11T21:46:42.250Z,96.45
2023-01-11T21:49:09.839Z,99.50
2023-01-11T21:51:36.806Z,94.55
2023-01-11T21:54:09.145Z,99.78
2023-01-11T21:56:36.496Z,102.80
2023-01-11T21:59:03.513Z,107.65
2023-01-11T22:01:30.235Z,104.50
2023-01-11T22:03:57.281Z,95.68
2023-01-11T22:06:24.056Z,96.82
2023-01-11T22:08:51.007Z,100.10
2023-01-11T22:11:18.301Z,98.72
2023-01-11T22:13:45.260Z,94.93
2023-01-11T22:16:17.350Z,99.85
2023-01-11T22:18:44.991Z,99.93
2023-01-11T22:21:17.728Z,99.85
2023-01-11T22:23:45.971Z,96.25
2023-01-11T22:26:17.692Z,100.20
2023-01-11T22:29:04.425Z,98.10
2023-01-11T22:31:32.297Z,99.68
2023-01-11T22:33:59.932Z,97.05
2023-01-11T22:36:27.990Z,100.07
2023-01-11T22:38:54.972Z,96.18
2023-01-11T22:41:23.181Z,96.60
2023-01-11T22:43:49.803Z,114.60
2023-01-11T22:46:19.254Z,103.53
2023-01-11T22:48:49.131Z,94.95
2023-01-11T22:51:17.895Z,98.38
2023-01-11T22:53:47.198Z,96.40
2023-01-11T22:56:18.177Z,100.25
2023-01-11T22:58:45.582Z,96.55
2023-01-11T23:01:29.476Z,95.60
2023-01-11T23:03:57.621Z,97.90
2023-01-11T23:06:27.440Z,103.47
2023-01-11T23:08:54.940Z,97.93
2023-01-11T23:11:43.016Z,94.80
2023-01-11T23:14:12.667Z,99.35
2023-01-11T23:16:40.526Z,95.20
2023-01-11T23:19:08.559Z,100.03
2023-01-11T23:21:35.867Z,99.68
2023-01-11T23:24:03.174Z,94.53
2023-01-11T23:26:30.067Z,96.15
2023-01-11T23:28:56.794Z,94.97
2023-01-11T23:31:25.604Z,93.00
2023-01-11T23:33:54.460Z,101.63
2023-01-11T23:36:23.227Z,94.03
2023-01-11T23:38:51.019Z,99.68
2023-01-11T23:41:38.239Z,96.97
2023-01-11T23:44:06.668Z,102.95
2023-01-11T23:46:52.080Z,105.78
2023-01-11T23:49:18.756Z,101.50
2023-01-11T23:51:45.375Z,98.57
2023-01-11T23:54:12.304Z,93.28
2023-01-11T23:56:39.618Z,102.45
2023-01-11T23:59:07.687Z,107.53
